Alexandria, VA (22304)

5:34 AM EST on February 08, 2016 (GMT -0500)
Seminary Ridge - St Stephens & St. Agnes Upper Campus | | Change Station
CLOSE
Current Station
Personal Weather Station
Location: Alexandria, VA
Elevation: 242 ft
Nearby Weather Stations

Elev 242 ft 38.82 °N, 77.10 °W | Updated 17 seconds ago

Partly Cloudy
Partly Cloudy
36.3 °F
Feels Like 33 °F
N
4.0
Wind Variable Wind from NNW
Gusts 8.0 mph

Today
High -- | Low -- °F
--% Chance of Precip.
Yesterday
High -- | Low -- °F
Precip. -- in
Pressure 29.78 in
Visibility 10.0 miles
Clouds Few 16000 ft
Mostly Cloudy 22000 ft
Windchill 33 °F
Dew Point 28 °F
Humidity 70%
Rainfall 0.00 in
Snow Depth Not available.
7:08 AM 5:37 PM
Waning Crescent, 0% visible
METAR KDCA 080952Z 33011KT 10SM FEW160 BKN220 02/M06 A2978 RMK AO2 SLP085 T00221056
Pressure 29.78 in
Visibility 10.0 miles
Clouds Few 16000 ft
Mostly Cloudy 22000 ft
Windchill 33 °F
Dew Point 28 °F
Humidity 70%
Rainfall 0.00 in
Snow Depth Not available.
7:08 AM 5:37 PM
Waning Crescent, 0% visible
METAR KDCA 080952Z 33011KT 10SM FEW160 BKN220 02/M06 A2978 RMK AO2 SLP085 T00221056

10-Day Weather Forecast

Almanac

Astronomy

Feb. 08, 2016 Rise Set
Actual Time
Civil Twilight
Nautical Twilight
Astronomical Twilight
Moon
Length of Visible Light
Length of Day
Tomorrow will be .
, % of the Moon is Illuminated

Today's Extremes

State Highs State Lows

Community

WunderPhotos

Upload Photos

1,891,420 photos uploaded!

WunderBlog® & News

Nearby

Air Quality

  Air Quality AQ Index Pollutant
Not available.

Snow Depth

Station Depth Elevation

Earthquake Activity

City Distance Mag. Time & Date
Minimum magnitude displayed is 2.5.

Coastal Water Temperatures

Place Temperature

Stations

Nearby Weather Stations

Station Location Temp. Windchill Dew Point Humidity Wind Precip. Elev Updated Type
                   

Watches & Warnings

There are currently no watches in effect.